createdAt,value
2023-05-18T00:02:07.093Z,69.08
2023-05-18T00:04:34.965Z,68.94
2023-05-18T00:07:04.088Z,69.09
2023-05-18T00:09:36.158Z,69.19
2023-05-18T00:12:04.496Z,69.19
2023-05-18T00:14:31.661Z,69.06
2023-05-18T00:16:58.268Z,69.19
2023-05-18T00:19:24.941Z,69.31
2023-05-18T00:21:52.665Z,69.41
2023-05-18T00:24:19.562Z,69.37
2023-05-18T00:26:47.741Z,69.38
2023-05-18T00:29:14.271Z,69.38
2023-05-18T00:31:42.122Z,69.29
2023-05-18T00:34:09.777Z,69.31
2023-05-18T00:36:37.156Z,69.30
2023-05-18T00:39:05.035Z,69.31
2023-05-18T00:41:32.523Z,69.51
2023-05-18T00:43:59.721Z,69.81
2023-05-18T00:46:28.082Z,69.82
2023-05-18T00:48:57.187Z,70.03
2023-05-18T00:51:25.127Z,70.02
2023-05-18T00:53:53.566Z,69.91
2023-05-18T00:56:23.702Z,70.31
2023-05-18T00:58:52.478Z,70.08
2023-05-18T01:01:19.483Z,70.17
2023-05-18T01:03:45.931Z,70.20
2023-05-18T01:06:14.728Z,70.07
2023-05-18T01:08:42.890Z,70.31
2023-05-18T01:11:14.301Z,70.38
2023-05-18T01:13:58.814Z,70.09
2023-05-18T01:16:34.091Z,70.19
2023-05-18T01:19:07.612Z,70.22
2023-05-18T01:22:04.105Z,70.56
2023-05-18T01:24:48.474Z,70.87
2023-05-18T01:27:21.469Z,70.96
2023-05-18T01:29:48.628Z,71.38
2023-05-18T01:32:23.654Z,71.63
2023-05-18T01:34:50.405Z,71.81
2023-05-18T01:37:16.931Z,71.86
2023-05-18T01:39:43.647Z,72.00
2023-05-18T01:42:19.494Z,72.29
2023-05-18T01:44:54.426Z,72.35
2023-05-18T01:47:20.854Z,72.38
2023-05-18T01:50:06.337Z,72.46
2023-05-18T01:52:42.049Z,72.63
2023-05-18T01:55:10.638Z,72.97
2023-05-18T01:57:41.469Z,72.97
2023-05-18T02:00:10.167Z,73.02
2023-05-18T02:02:36.787Z,72.99
2023-05-18T02:05:05.424Z,72.60
2023-05-18T02:07:31.934Z,72.75
2023-05-18T02:09:58.395Z,72.55
2023-05-18T02:12:24.805Z,72.77
2023-05-18T02:14:51.484Z,73.08
2023-05-18T02:17:17.967Z,72.79
2023-05-18T02:19:44.702Z,73.38
2023-05-18T02:22:11.243Z,73.28
2023-05-18T02:24:37.728Z,73.28
2023-05-18T02:27:05.807Z,73.48
2023-05-18T02:29:32.237Z,73.43
2023-05-18T02:31:58.724Z,73.46
2023-05-18T02:34:25.158Z,73.53
2023-05-18T02:36:51.615Z,73.59
2023-05-18T02:39:18.100Z,73.42
2023-05-18T02:41:44.590Z,73.70
2023-05-18T02:44:12.374Z,73.79
2023-05-18T02:46:38.948Z,74.08
2023-05-18T02:49:05.734Z,73.76
2023-05-18T02:51:32.272Z,73.60
2023-05-18T02:53:58.662Z,73.77
2023-05-18T02:56:25.124Z,73.85
2023-05-18T02:58:57.504Z,73.64
2023-05-18T03:01:27.481Z,73.97
2023-05-18T03:03:54.865Z,73.79
2023-05-18T03:06:26.602Z,73.79
2023-05-18T03:08:56.523Z,73.72
2023-05-18T03:11:24.058Z,73.57
2023-05-18T03:13:50.787Z,73.68
2023-05-18T03:16:17.429Z,73.59
2023-05-18T03:18:44.150Z,73.89
2023-05-18T03:21:13.509Z,73.86
2023-05-18T03:23:40.527Z,73.77
2023-05-18T03:26:10.630Z,73.97
2023-05-18T03:28:40.038Z,74.13
2023-05-18T03:31:06.788Z,74.52
2023-05-18T03:33:33.632Z,74.52
2023-05-18T03:36:04.597Z,74.63
2023-05-18T03:38:31.636Z,74.73
2023-05-18T03:40:58.274Z,74.71
2023-05-18T03:43:26.101Z,74.88
2023-05-18T03:45:53.373Z,74.82
2023-05-18T03:48:20.984Z,74.85
2023-05-18T03:50:48.590Z,74.67
2023-05-18T03:53:18.917Z,74.92
2023-05-18T03:55:45.825Z,74.98
2023-05-18T03:58:12.295Z,74.93
2023-05-18T04:00:39.059Z,75.14
2023-05-18T04:03:05.628Z,75.06
2023-05-18T04:05:32.776Z,75.16
2023-05-18T04:07:59.269Z,75.09
2023-05-18T04:10:26.494Z,75.25
2023-05-18T04:12:53.044Z,75.04
2023-05-18T04:15:19.503Z,74.78
2023-05-18T04:17:46.252Z,75.09
2023-05-18T04:20:14.409Z,75.14
2023-05-18T04:22:49.169Z,75.30
2023-05-18T04:25:16.395Z,75.15
2023-05-18T04:27:45.367Z,75.29
2023-05-18T04:30:13.015Z,75.34
2023-05-18T04:32:42.899Z,75.28
2023-05-18T04:35:10.974Z,75.40
2023-05-18T04:37:40.186Z,75.42
2023-05-18T04:40:08.617Z,75.54
2023-05-18T04:42:37.642Z,75.10
2023-05-18T04:45:05.964Z,75.02
2023-05-18T04:47:32.909Z,75.36
2023-05-18T04:49:59.410Z,75.16
2023-05-18T04:52:26.249Z,75.33
2023-05-18T04:54:52.887Z,75.20
2023-05-18T04:57:19.337Z,74.70
2023-05-18T04:59:47.299Z,74.94
2023-05-18T05:02:14.376Z,74.92
2023-05-18T05:04:41.884Z,74.49
2023-05-18T05:07:08.408Z,74.48
2023-05-18T05:09:34.881Z,74.35
2023-05-18T05:12:02.068Z,74.21
2023-05-18T05:14:28.520Z,73.97
2023-05-18T05:16:55.055Z,73.72
2023-05-18T05:19:21.500Z,73.67
2023-05-18T05:21:48.326Z,73.47
2023-05-18T05:24:14.727Z,73.17
2023-05-18T05:26:41.135Z,72.49
2023-05-18T05:29:07.538Z,72.10
2023-05-18T05:31:34.633Z,71.88
2023-05-18T05:34:01.320Z,71.69
2023-05-18T05:36:27.805Z,71.60
2023-05-18T05:38:54.224Z,71.50
2023-05-18T05:41:22.725Z,70.88
2023-05-18T05:43:49.186Z,71.28
2023-05-18T05:46:15.760Z,71.29
2023-05-18T05:48:42.269Z,70.63
2023-05-18T05:51:08.727Z,70.92
2023-05-18T05:53:35.235Z,70.62
2023-05-18T05:56:01.686Z,70.70
2023-05-18T05:58:28.166Z,70.15
2023-05-18T06:00:54.842Z,70.26
2023-05-18T06:03:21.405Z,69.93
2023-05-18T06:05:50.379Z,70.04
2023-05-18T06:08:17.223Z,69.62
2023-05-18T06:10:43.779Z,68.78
2023-05-18T06:13:10.250Z,67.69
2023-05-18T06:15:36.733Z,62.72
2023-05-18T06:18:03.318Z,59.79
2023-05-18T06:20:29.854Z,57.23
2023-05-18T06:22:56.744Z,53.91
2023-05-18T06:25:24.232Z,53.33
2023-05-18T06:27:50.803Z,53.33
2023-05-18T06:30:17.306Z,54.11
2023-05-18T06:32:43.830Z,55.96
2023-05-18T06:35:10.356Z,55.55
2023-05-18T06:37:36.905Z,55.94
2023-05-18T06:40:04.840Z,55.26
2023-05-18T06:42:32.707Z,54.31
2023-05-18T06:44:59.312Z,55.20
2023-05-18T06:47:25.886Z,54.93
2023-05-18T06:49:52.377Z,53.71
2023-05-18T06:52:18.819Z,54.65
2023-05-18T06:54:46.017Z,53.43
2023-05-18T06:57:13.010Z,53.45
2023-05-18T06:59:39.472Z,52.93
2023-05-18T07:02:06.739Z,53.69
2023-05-18T07:04:33.197Z,53.70
2023-05-18T07:06:59.686Z,51.43
2023-05-18T07:09:26.243Z,50.70
2023-05-18T07:11:52.708Z,51.36
2023-05-18T07:14:19.112Z,52.03
2023-05-18T07:16:47.353Z,50.86
2023-05-18T07:19:14.792Z,51.48
2023-05-18T07:21:41.496Z,51.68
2023-05-18T07:24:08.040Z,52.25
2023-05-18T07:26:34.529Z,52.12
2023-05-18T07:29:00.941Z,51.71
2023-05-18T07:31:27.863Z,52.48
2023-05-18T07:33:54.381Z,53.52
2023-05-18T07:36:21.127Z,53.91
2023-05-18T07:38:48.128Z,53.26
2023-05-18T07:41:14.636Z,52.77
2023-05-18T07:43:41.040Z,52.59
2023-05-18T07:46:07.537Z,52.08
2023-05-18T07:48:34.081Z,52.48
2023-05-18T07:51:00.590Z,52.99
2023-05-18T07:53:27.157Z,52.91
2023-05-18T07:55:53.643Z,52.62
2023-05-18T07:58:20.086Z,52.58
2023-05-18T08:00:46.668Z,52.88
2023-05-18T08:03:13.222Z,52.51
2023-05-18T08:05:39.739Z,53.06
2023-05-18T08:08:07.038Z,51.95
2023-05-18T08:10:33.803Z,52.41
2023-05-18T08:13:00.218Z,52.41
2023-05-18T08:15:26.689Z,51.64
2023-05-18T08:17:54.925Z,52.74
2023-05-18T08:20:21.709Z,52.00
2023-05-18T08:22:48.152Z,49.97
2023-05-18T08:25:15.047Z,51.28
2023-05-18T08:27:41.541Z,50.89
2023-05-18T08:30:08.680Z,50.27
2023-05-18T08:32:37.330Z,49.63
2023-05-18T08:35:05.854Z,50.64
2023-05-18T08:37:32.449Z,49.79
2023-05-18T08:39:59.803Z,48.46
2023-05-18T08:42:49.207Z,47.58
2023-05-18T08:45:36.041Z,48.89
2023-05-18T08:48:03.565Z,45.97
2023-05-18T08:50:32.764Z,44.63
2023-05-18T08:53:02.242Z,45.69
2023-05-18T08:55:29.350Z,45.86
2023-05-18T08:58:00.164Z,44.88
2023-05-18T09:00:27.323Z,43.86
2023-05-18T09:02:54.430Z,44.67
2023-05-18T09:05:22.820Z,45.47
2023-05-18T09:07:54.587Z,45.30
2023-05-18T09:10:22.891Z,45.17
2023-05-18T09:12:50.728Z,44.72
2023-05-18T09:15:17.848Z,44.42
2023-05-18T09:17:44.436Z,44.96
2023-05-18T09:20:12.122Z,44.02
2023-05-18T09:22:41.921Z,45.08
2023-05-18T09:25:09.722Z,43.98
2023-05-18T09:27:37.053Z,43.67
2023-05-18T09:30:04.923Z,45.84
2023-05-18T09:32:36.494Z,44.89
2023-05-18T09:35:07.654Z,46.08
2023-05-18T09:37:34.615Z,44.83
2023-05-18T09:40:04.683Z,44.21
2023-05-18T09:42:44.828Z,43.94
2023-05-18T09:45:26.704Z,45.08
2023-05-18T09:47:53.779Z,44.43
2023-05-18T09:50:21.701Z,43.49
2023-05-18T09:52:52.264Z,43.39
2023-05-18T09:55:20.566Z,44.02
2023-05-18T09:57:51.136Z,42.79
2023-05-18T10:00:20.722Z,42.81
2023-05-18T10:02:52.228Z,44.49
2023-05-18T10:05:20.563Z,43.92
2023-05-18T10:07:48.498Z,43.52
2023-05-18T10:10:19.667Z,42.93
2023-05-18T10:12:46.575Z,41.55
2023-05-18T10:15:19.574Z,42.09
2023-05-18T10:17:47.865Z,41.75
2023-05-18T10:20:19.747Z,41.63
2023-05-18T10:22:48.163Z,41.75
2023-05-18T10:25:23.772Z,42.56
2023-05-18T10:27:54.440Z,42.97
2023-05-18T10:30:23.009Z,44.38
2023-05-18T10:32:51.359Z,43.79
2023-05-18T10:35:19.002Z,42.78
2023-05-18T10:37:50.335Z,41.94
2023-05-18T10:40:18.251Z,41.88
2023-05-18T10:42:46.084Z,41.01
2023-05-18T10:45:12.635Z,42.31
2023-05-18T10:47:42.415Z,41.77
2023-05-18T10:50:10.000Z,41.95
2023-05-18T10:52:41.584Z,41.50
2023-05-18T10:55:08.529Z,40.96
2023-05-18T10:57:39.709Z,42.04
2023-05-18T11:00:09.478Z,41.68
2023-05-18T11:02:42.203Z,40.81
2023-05-18T11:05:12.280Z,40.97
2023-05-18T11:07:38.882Z,40.68
2023-05-18T11:10:11.616Z,40.50
2023-05-18T11:12:40.365Z,41.77
2023-05-18T11:15:07.995Z,39.77
2023-05-18T11:17:34.921Z,39.21
2023-05-18T11:20:05.780Z,38.19
2023-05-18T11:22:59.393Z,41.37
2023-05-18T11:25:26.007Z,39.63
2023-05-18T11:27:53.927Z,39.69
2023-05-18T11:30:28.345Z,40.99
2023-05-18T11:33:21.349Z,41.33
2023-05-18T11:36:09.603Z,39.96
2023-05-18T11:39:11.407Z,40.56
2023-05-18T11:41:41.630Z,38.66
2023-05-18T11:44:20.300Z,39.84
2023-05-18T11:46:58.969Z,39.26
2023-05-18T11:49:27.333Z,37.80
2023-05-18T11:52:07.189Z,39.46
2023-05-18T11:54:35.419Z,39.53
2023-05-18T11:57:02.144Z,39.06
2023-05-18T11:59:33.308Z,39.03
2023-05-18T12:02:01.860Z,40.39
2023-05-18T12:04:29.596Z,39.75
2023-05-18T12:06:57.277Z,39.05
2023-05-18T12:09:24.873Z,37.38
2023-05-18T12:11:51.923Z,37.41
2023-05-18T12:14:22.807Z,37.71
2023-05-18T12:16:49.925Z,37.75
2023-05-18T12:19:19.594Z,37.88
2023-05-18T12:21:47.085Z,38.46
2023-05-18T12:24:13.741Z,38.77
2023-05-18T12:26:41.208Z,39.18
2023-05-18T12:29:07.995Z,38.88
2023-05-18T12:31:34.749Z,38.92
2023-05-18T12:34:02.484Z,38.05
2023-05-18T12:36:29.062Z,37.40
2023-05-18T12:38:55.493Z,38.21
2023-05-18T12:41:23.724Z,37.99
2023-05-18T12:43:52.009Z,39.15
2023-05-18T12:46:18.623Z,40.14
2023-05-18T12:48:50.003Z,38.44
2023-05-18T12:51:20.054Z,40.04
2023-05-18T12:53:49.802Z,40.67
2023-05-18T12:56:18.195Z,38.59
2023-05-18T12:58:58.717Z,40.32
2023-05-18T13:01:25.349Z,40.08
2023-05-18T13:03:57.518Z,39.73
2023-05-18T13:06:24.691Z,38.04
2023-05-18T13:08:58.191Z,39.13
2023-05-18T13:11:28.675Z,38.55
2023-05-18T13:14:02.067Z,39.37
2023-05-18T13:16:30.684Z,39.91
2023-05-18T13:18:59.104Z,40.11
2023-05-18T13:21:25.754Z,40.47
2023-05-18T13:23:53.161Z,39.92
2023-05-18T13:26:24.431Z,39.30
2023-05-18T13:28:54.150Z,40.16
2023-05-18T13:31:21.070Z,39.61
2023-05-18T13:33:48.353Z,40.16
2023-05-18T13:36:15.468Z,39.55
2023-05-18T13:38:42.706Z,39.74
2023-05-18T13:41:15.227Z,39.51
2023-05-18T13:43:42.803Z,38.88
2023-05-18T13:46:09.542Z,39.28
2023-05-18T13:48:36.112Z,38.17
2023-05-18T13:51:02.587Z,39.37
2023-05-18T13:53:29.190Z,39.63
2023-05-18T13:55:55.816Z,39.57
2023-05-18T13:58:23.788Z,39.92
2023-05-18T14:00:50.297Z,38.56
2023-05-18T14:03:17.707Z,38.91
2023-05-18T14:05:44.444Z,38.91
2023-05-18T14:08:11.051Z,38.60
2023-05-18T14:10:37.731Z,38.17
2023-05-18T14:13:04.286Z,39.60
2023-05-18T14:15:30.806Z,38.59
2023-05-18T14:17:57.351Z,38.99
2023-05-18T14:20:23.903Z,37.99
2023-05-18T14:22:50.373Z,38.37
2023-05-18T14:25:17.109Z,38.31
2023-05-18T14:27:43.670Z,38.97
2023-05-18T14:30:10.413Z,37.32
2023-05-18T14:32:37.199Z,38.72
2023-05-18T14:35:04.249Z,38.16
2023-05-18T14:37:30.856Z,38.55
2023-05-18T14:39:57.331Z,38.20
2023-05-18T14:42:23.945Z,37.64
2023-05-18T14:44:50.413Z,38.56
2023-05-18T14:47:17.877Z,38.33
2023-05-18T14:49:44.292Z,37.79
2023-05-18T14:52:11.257Z,37.89
2023-05-18T14:54:37.784Z,38.08
2023-05-18T14:57:04.612Z,37.34
2023-05-18T14:59:31.784Z,37.44
2023-05-18T15:01:58.518Z,38.10
2023-05-18T15:04:25.823Z,37.55
2023-05-18T15:06:52.730Z,37.63
2023-05-18T15:09:19.184Z,36.95
2023-05-18T15:11:46.456Z,36.44
2023-05-18T15:14:13.065Z,36.21
2023-05-18T15:16:39.733Z,37.57
2023-05-18T15:19:06.546Z,36.88
2023-05-18T15:21:33.054Z,37.13
2023-05-18T15:23:59.544Z,37.59
2023-05-18T15:26:26.208Z,38.07
2023-05-18T15:28:52.755Z,38.39
2023-05-18T15:31:19.401Z,37.08
2023-05-18T15:33:46.011Z,37.72
2023-05-18T15:36:12.649Z,37.32
2023-05-18T15:38:39.134Z,37.79
2023-05-18T15:41:05.927Z,38.95
2023-05-18T15:43:33.604Z,39.77
2023-05-18T15:46:00.136Z,38.56
2023-05-18T15:48:26.677Z,39.38
2023-05-18T15:50:53.214Z,39.22
2023-05-18T15:53:19.771Z,39.79
2023-05-18T15:55:46.653Z,38.11
2023-05-18T15:58:13.564Z,39.18
2023-05-18T16:00:40.165Z,39.33
2023-05-18T16:03:06.672Z,39.81
2023-05-18T16:05:33.438Z,40.22
2023-05-18T16:07:59.982Z,39.74
2023-05-18T16:10:26.442Z,40.65
2023-05-18T16:12:52.917Z,39.89
2023-05-18T16:15:24.143Z,41.04
2023-05-18T16:17:50.787Z,40.25
2023-05-18T16:20:18.481Z,41.08
2023-05-18T16:22:46.841Z,41.68
2023-05-18T16:25:13.496Z,39.62
2023-05-18T16:27:39.977Z,39.81
2023-05-18T16:30:07.314Z,39.79
2023-05-18T16:32:33.851Z,39.87
2023-05-18T16:35:01.040Z,39.54
2023-05-18T16:37:28.049Z,39.79
2023-05-18T16:39:54.537Z,40.02
2023-05-18T16:42:22.577Z,40.24
2023-05-18T16:44:49.024Z,40.81
2023-05-18T16:47:15.515Z,40.13
2023-05-18T16:49:45.243Z,40.08
2023-05-18T16:52:11.747Z,40.07
2023-05-18T16:54:38.225Z,40.25
2023-05-18T16:57:05.169Z,40.86
2023-05-18T16:59:34.293Z,39.94
2023-05-18T17:02:01.421Z,39.62
2023-05-18T17:04:27.944Z,40.62
2023-05-18T17:06:54.378Z,40.38
2023-05-18T17:09:20.819Z,40.88
2023-05-18T17:11:48.221Z,41.45
2023-05-18T17:14:14.646Z,41.06
2023-05-18T17:16:41.300Z,41.89
2023-05-18T17:19:08.046Z,41.54
2023-05-18T17:21:34.659Z,41.14
2023-05-18T17:24:01.137Z,40.59
2023-05-18T17:26:30.792Z,40.92
2023-05-18T17:28:57.453Z,40.57
2023-05-18T17:31:24.146Z,41.38
2023-05-18T17:33:51.001Z,42.02
2023-05-18T17:36:18.257Z,41.19
2023-05-18T17:38:45.255Z,40.30
2023-05-18T17:41:11.733Z,40.33
2023-05-18T17:43:38.187Z,40.64
2023-05-18T17:46:04.864Z,40.26
2023-05-18T17:48:31.742Z,39.92
2023-05-18T17:50:58.162Z,40.32
2023-05-18T17:53:24.664Z,40.20
2023-05-18T17:55:51.124Z,40.77
2023-05-18T17:58:17.603Z,40.55
2023-05-18T18:00:44.090Z,40.11
2023-05-18T18:03:10.690Z,40.56
2023-05-18T18:05:37.294Z,40.94
2023-05-18T18:08:04.534Z,40.65
2023-05-18T18:10:32.036Z,40.54
2023-05-18T18:12:58.910Z,40.42
2023-05-18T18:15:27.485Z,41.95
2023-05-18T18:17:55.903Z,41.54
2023-05-18T18:20:22.735Z,41.88
2023-05-18T18:22:49.153Z,40.42
2023-05-18T18:25:15.894Z,41.08
2023-05-18T18:27:42.406Z,40.88
2023-05-18T18:30:09.374Z,41.57
2023-05-18T18:32:35.907Z,41.98
2023-05-18T18:35:02.392Z,41.90
2023-05-18T18:37:28.985Z,41.46
2023-05-18T18:39:55.434Z,41.99
2023-05-18T18:42:21.893Z,42.27
2023-05-18T18:44:48.404Z,42.41
2023-05-18T18:47:14.866Z,42.73
2023-05-18T18:49:41.306Z,43.39
2023-05-18T18:52:07.742Z,43.39
2023-05-18T18:54:34.205Z,43.29
2023-05-18T18:57:01.749Z,42.96
2023-05-18T18:59:28.207Z,43.45
2023-05-18T19:01:54.682Z,44.88
2023-05-18T19:04:21.178Z,44.68
2023-05-18T19:06:47.629Z,45.27
2023-05-18T19:09:14.069Z,45.16
2023-05-18T19:11:40.616Z,45.81
2023-05-18T19:14:07.057Z,45.89
2023-05-18T19:16:34.080Z,46.74
2023-05-18T19:19:00.713Z,47.25
2023-05-18T19:21:28.866Z,47.05
2023-05-18T19:23:55.345Z,46.83
2023-05-18T19:26:22.710Z,46.62
2023-05-18T19:28:49.142Z,47.66
2023-05-18T19:31:15.744Z,46.89
2023-05-18T19:33:42.263Z,47.14
2023-05-18T19:36:10.315Z,46.80
2023-05-18T19:38:36.927Z,47.73
2023-05-18T19:41:03.386Z,47.48
2023-05-18T19:43:29.886Z,48.12
2023-05-18T19:45:56.410Z,49.85
2023-05-18T19:48:22.910Z,49.72
2023-05-18T19:50:49.367Z,50.81
2023-05-18T19:53:15.843Z,50.52
2023-05-18T19:55:42.296Z,50.56
2023-05-18T19:58:08.910Z,51.40
2023-05-18T20:00:37.993Z,51.96
2023-05-18T20:03:05.028Z,51.93
2023-05-18T20:05:31.962Z,52.03
2023-05-18T20:07:58.783Z,52.15
2023-05-18T20:10:25.451Z,52.28
2023-05-18T20:12:51.892Z,51.75
2023-05-18T20:15:19.043Z,51.52
2023-05-18T20:17:45.688Z,52.12
2023-05-18T20:20:12.440Z,52.87
2023-05-18T20:22:39.152Z,53.77
2023-05-18T20:25:06.450Z,53.92
2023-05-18T20:27:32.911Z,54.55
2023-05-18T20:29:59.425Z,54.91
2023-05-18T20:32:26.086Z,55.55
2023-05-18T20:34:52.537Z,55.94
2023-05-18T20:37:19.511Z,56.16
2023-05-18T20:39:50.684Z,56.72
2023-05-18T20:42:24.396Z,56.98
2023-05-18T20:44:52.566Z,57.85
2023-05-18T20:47:20.438Z,57.88
2023-05-18T20:49:47.710Z,58.53
2023-05-18T20:52:14.402Z,58.46
2023-05-18T20:54:40.862Z,58.60
2023-05-18T20:57:07.335Z,58.97
2023-05-18T20:59:33.806Z,59.19
2023-05-18T21:02:00.446Z,59.45
2023-05-18T21:04:27.007Z,59.75
2023-05-18T21:06:53.402Z,59.96
2023-05-18T21:09:19.797Z,60.11
2023-05-18T21:11:46.476Z,60.26
2023-05-18T21:14:12.961Z,60.54
2023-05-18T21:16:39.555Z,60.89
2023-05-18T21:19:06.222Z,60.85
2023-05-18T21:21:32.717Z,61.45
2023-05-18T21:23:59.614Z,61.62
2023-05-18T21:26:26.555Z,61.83
2023-05-18T21:28:53.801Z,62.24
2023-05-18T21:31:20.310Z,62.86
2023-05-18T21:33:51.085Z,63.04
2023-05-18T21:36:25.560Z,63.19
2023-05-18T21:38:51.954Z,63.30
2023-05-18T21:41:18.639Z,63.57
2023-05-18T21:43:45.063Z,64.19
2023-05-18T21:46:11.544Z,64.15
2023-05-18T21:48:37.929Z,64.34
2023-05-18T21:51:04.890Z,64.52
2023-05-18T21:53:31.647Z,64.59
2023-05-18T21:55:58.216Z,64.73
2023-05-18T21:58:24.993Z,64.75
2023-05-18T22:00:51.550Z,65.01
2023-05-18T22:03:18.162Z,64.96
2023-05-18T22:05:44.756Z,65.22
2023-05-18T22:08:11.439Z,65.27
2023-05-18T22:10:37.930Z,65.51
2023-05-18T22:13:04.399Z,65.49
2023-05-18T22:15:32.023Z,65.78
2023-05-18T22:18:01.813Z,66.12
2023-05-18T22:20:28.516Z,66.31
2023-05-18T22:22:54.954Z,66.36
2023-05-18T22:25:21.461Z,66.59
2023-05-18T22:27:48.153Z,66.60
2023-05-18T22:30:15.396Z,67.02
2023-05-18T22:32:43.952Z,67.20
2023-05-18T22:35:10.891Z,67.21
2023-05-18T22:37:37.336Z,67.46
2023-05-18T22:40:06.165Z,67.61
2023-05-18T22:42:33.274Z,67.93
2023-05-18T22:44:59.701Z,68.18
2023-05-18T22:47:28.234Z,68.23
2023-05-18T22:49:54.652Z,68.22
2023-05-18T22:52:21.255Z,68.44
2023-05-18T22:54:48.098Z,68.78
2023-05-18T22:57:14.552Z,68.79
2023-05-18T22:59:41.289Z,69.13
2023-05-18T23:02:07.783Z,69.18
2023-05-18T23:04:35.040Z,69.22
2023-05-18T23:07:01.818Z,69.41
2023-05-18T23:09:28.396Z,69.66
2023-05-18T23:11:55.669Z,69.72
2023-05-18T23:14:25.359Z,70.03
2023-05-18T23:16:53.629Z,70.27
2023-05-18T23:19:20.130Z,70.38
2023-05-18T23:21:46.951Z,70.30
2023-05-18T23:24:15.298Z,70.61
2023-05-18T23:26:42.423Z,70.79
2023-05-18T23:29:09.286Z,70.75
2023-05-18T23:31:36.040Z,71.01
2023-05-18T23:34:03.097Z,71.04
2023-05-18T23:36:31.854Z,71.24
2023-05-18T23:39:01.925Z,71.27
2023-05-18T23:41:30.628Z,71.74
2023-05-18T23:43:57.885Z,71.64
2023-05-18T23:46:25.212Z,72.04
2023-05-18T23:48:52.466Z,72.13
2023-05-18T23:51:20.661Z,72.28
2023-05-18T23:53:49.132Z,72.06
2023-05-18T23:56:15.968Z,72.51
2023-05-18T23:58:43.734Z,72.62
